sensor_id;sensor_type;location;lat;lon;timestamp;pressure;altitude;pressure_sealevel;temperature;humidity
37368;BME280;23240;43.210;27.910;2023-01-28T00:02:08;100299.91;;;3.02;100.00
37368;BME280;23240;43.210;27.910;2023-01-28T00:04:33;100306.88;;;3.03;100.00
37368;BME280;23240;43.210;27.910;2023-01-28T00:06:59;100311.44;;;3.01;100.00
37368;BME280;23240;43.210;27.910;2023-01-28T00:09:24;100310.31;;;3.05;100.00
37368;BME280;23240;43.210;27.910;2023-01-28T00:11:50;100307.94;;;3.01;100.00
37368;BME280;23240;43.210;27.910;2023-01-28T00:14:16;100312.28;;;3.02;100.00
37368;BME280;23240;43.210;27.910;2023-01-28T00:16:41;100310.38;;;3.04;100.00
37368;BME280;23240;43.210;27.910;2023-01-28T00:19:07;100316.34;;;3.07;100.00
37368;BME280;23240;43.210;27.910;2023-01-28T00:21:33;100321.66;;;3.07;100.00
37368;BME280;23240;43.210;27.910;2023-01-28T00:23:58;100331.13;;;3.12;100.00
37368;BME280;23240;43.210;27.910;2023-01-28T00:26:24;100321.38;;;3.12;100.00
37368;BME280;23240;43.210;27.910;2023-01-28T00:28:50;100318.47;;;3.17;100.00
37368;BME280;23240;43.210;27.910;2023-01-28T00:31:24;100329.47;;;3.25;100.00
37368;BME280;23240;43.210;27.910;2023-01-28T00:33:50;100327.00;;;3.22;100.00
37368;BME280;23240;43.210;27.910;2023-01-28T00:36:18;100329.38;;;3.26;100.00
37368;BME280;23240;43.210;27.910;2023-01-28T00:38:52;100338.28;;;3.25;100.00
37368;BME280;23240;43.210;27.910;2023-01-28T00:41:19;100327.16;;;3.19;100.00
37368;BME280;23240;43.210;27.910;2023-01-28T00:43:48;100324.34;;;3.22;100.00
37368;BME280;23240;43.210;27.910;2023-01-28T00:46:14;100324.34;;;3.22;100.00
37368;BME280;23240;43.210;27.910;2023-01-28T00:48:41;100328.91;;;3.20;100.00
37368;BME280;23240;43.210;27.910;2023-01-28T00:51:08;100329.75;;;3.04;100.00
37368;BME280;23240;43.210;27.910;2023-01-28T00:53:34;100332.69;;;3.00;100.00
37368;BME280;23240;43.210;27.910;2023-01-28T00:56:02;100338.91;;;2.99;100.00
37368;BME280;23240;43.210;27.910;2023-01-28T00:58:27;100336.19;;;3.00;100.00
37368;BME280;23240;43.210;27.910;2023-01-28T01:00:53;100336.59;;;2.93;100.00
37368;BME280;23240;43.210;27.910;2023-01-28T01:03:19;100340.34;;;2.89;100.00
37368;BME280;23240;43.210;27.910;2023-01-28T01:05:45;100343.59;;;2.94;100.00
37368;BME280;23240;43.210;27.910;2023-01-28T01:08:11;100348.88;;;2.94;100.00
37368;BME280;23240;43.210;27.910;2023-01-28T01:10:37;100351.72;;;2.91;100.00
37368;BME280;23240;43.210;27.910;2023-01-28T01:13:06;100356.06;;;2.92;100.00
37368;BME280;23240;43.210;27.910;2023-01-28T01:15:32;100353.53;;;2.90;100.00
37368;BME280;23240;43.210;27.910;2023-01-28T01:17:58;100356.06;;;2.92;100.00
37368;BME280;23240;43.210;27.910;2023-01-28T01:20:26;100356.16;;;2.90;100.00
37368;BME280;23240;43.210;27.910;2023-01-28T01:22:53;100341.31;;;2.88;100.00
37368;BME280;23240;43.210;27.910;2023-01-28T01:25:19;100353.94;;;2.82;100.00
37368;BME280;23240;43.210;27.910;2023-01-28T01:27:46;100354.88;;;2.81;100.00
37368;BME280;23240;43.210;27.910;2023-01-28T01:30:13;100360.44;;;2.77;100.00
37368;BME280;23240;43.210;27.910;2023-01-28T01:32:39;100367.25;;;2.81;100.00
37368;BME280;23240;43.210;27.910;2023-01-28T01:35:06;100366.47;;;2.79;100.00
37368;BME280;23240;43.210;27.910;2023-01-28T01:37:33;100364.50;;;2.82;100.00
37368;BME280;23240;43.210;27.910;2023-01-28T01:39:59;100369.13;;;2.79;100.00
37368;BME280;23240;43.210;27.910;2023-01-28T01:42:26;100376.63;;;2.87;100.00
37368;BME280;23240;43.210;27.910;2023-01-28T01:47:43;100395.41;;;2.82;100.00
37368;BME280;23240;43.210;27.910;2023-01-28T01:50:54;100387.47;;;2.82;100.00
37368;BME280;23240;43.210;27.910;2023-01-28T01:53:12;100390.88;;;2.84;100.00
37368;BME280;23240;43.210;27.910;2023-01-28T01:55:40;100394.47;;;2.83;100.00
37368;BME280;23240;43.210;27.910;2023-01-28T01:58:10;100395.66;;;2.77;100.00
37368;BME280;23240;43.210;27.910;2023-01-28T02:00:37;100400.44;;;2.71;100.00
37368;BME280;23240;43.210;27.910;2023-01-28T02:03:03;100395.56;;;2.63;100.00
37368;BME280;23240;43.210;27.910;2023-01-28T02:05:29;100397.69;;;2.56;100.00
37368;BME280;23240;43.210;27.910;2023-01-28T02:07:56;100393.06;;;2.60;100.00
37368;BME280;23240;43.210;27.910;2023-01-28T02:10:42;100403.13;;;2.53;100.00
37368;BME280;23240;43.210;27.910;2023-01-28T02:13:08;100401.59;;;2.49;100.00
37368;BME280;23240;43.210;27.910;2023-01-28T02:15:34;100411.22;;;2.50;100.00
37368;BME280;23240;43.210;27.910;2023-01-28T02:18:00;100414.56;;;2.54;100.00
37368;BME280;23240;43.210;27.910;2023-01-28T02:20:59;100426.22;;;2.50;100.00
37368;BME280;23240;43.210;27.910;2023-01-28T02:29:29;100432.25;;;2.36;100.00
37368;BME280;23240;43.210;27.910;2023-01-28T02:32:07;100425.59;;;2.29;100.00
37368;BME280;23240;43.210;27.910;2023-01-28T02:37:16;100422.16;;;2.27;100.00
37368;BME280;23240;43.210;27.910;2023-01-28T02:39:51;100433.53;;;2.12;100.00
37368;BME280;23240;43.210;27.910;2023-01-28T02:42:25;100442.75;;;2.03;100.00
37368;BME280;23240;43.210;27.910;2023-01-28T02:44:51;100439.50;;;1.98;100.00
37368;BME280;23240;43.210;27.910;2023-01-28T02:47:17;100444.13;;;1.94;100.00
37368;BME280;23240;43.210;27.910;2023-01-28T02:50:04;100458.63;;;1.86;100.00
37368;BME280;23240;43.210;27.910;2023-01-28T03:01:21;100462.09;;;1.69;100.00
37368;BME280;23240;43.210;27.910;2023-01-28T03:03:59;100462.81;;;1.72;100.00
37368;BME280;23240;43.210;27.910;2023-01-28T03:06:32;100457.75;;;1.68;100.00
37368;BME280;23240;43.210;27.910;2023-01-28T03:09:03;100461.91;;;1.54;100.00
37368;BME280;23240;43.210;27.910;2023-01-28T03:12:05;100467.50;;;1.48;100.00
37368;BME280;23240;43.210;27.910;2023-01-28T03:15:02;100470.44;;;1.42;100.00
37368;BME280;23240;43.210;27.910;2023-01-28T03:17:59;100471.66;;;1.35;100.00
37368;BME280;23240;43.210;27.910;2023-01-28T03:23:38;100466.97;;;1.23;100.00
37368;BME280;23240;43.210;27.910;2023-01-28T03:26:26;100467.53;;;1.29;100.00
37368;BME280;23240;43.210;27.910;2023-01-28T03:29:13;100475.66;;;1.25;100.00
37368;BME280;23240;43.210;27.910;2023-01-28T03:31:58;100470.53;;;1.22;100.00
37368;BME280;23240;43.210;27.910;2023-01-28T03:34:44;100480.47;;;1.17;100.00
37368;BME280;23240;43.210;27.910;2023-01-28T03:37:29;100491.28;;;1.11;100.00
37368;BME280;23240;43.210;27.910;2023-01-28T03:40:01;100479.66;;;1.15;100.00
37368;BME280;23240;43.210;27.910;2023-01-28T03:42:29;100484.00;;;1.16;100.00
37368;BME280;23240;43.210;27.910;2023-01-28T03:44:55;100496.28;;;1.17;100.00
37368;BME280;23240;43.210;27.910;2023-01-28T03:47:23;100491.66;;;1.22;100.00
37368;BME280;23240;43.210;27.910;2023-01-28T03:49:51;100488.84;;;1.25;100.00
37368;BME280;23240;43.210;27.910;2023-01-28T03:52:20;100485.56;;;1.20;100.00
37368;BME280;23240;43.210;27.910;2023-01-28T03:54:46;100491.00;;;1.17;100.00
37368;BME280;23240;43.210;27.910;2023-01-28T03:57:16;100488.28;;;1.18;100.00
37368;BME280;23240;43.210;27.910;2023-01-28T03:59:42;100486.72;;;1.14;100.00
37368;BME280;23240;43.210;27.910;2023-01-28T04:02:09;100494.56;;;1.16;100.00
37368;BME280;23240;43.210;27.910;2023-01-28T04:04:38;100502.25;;;1.20;100.00
37368;BME280;23240;43.210;27.910;2023-01-28T04:07:06;100495.69;;;1.10;100.00
37368;BME280;23240;43.210;27.910;2023-01-28T04:09:36;100505.56;;;1.07;100.00
37368;BME280;23240;43.210;27.910;2023-01-28T04:12:03;100496.56;;;1.11;100.00
37368;BME280;23240;43.210;27.910;2023-01-28T04:14:29;100496.97;;;1.01;100.00
37368;BME280;23240;43.210;27.910;2023-01-28T04:16:55;100495.28;;;1.00;100.00
37368;BME280;23240;43.210;27.910;2023-01-28T04:19:21;100509.38;;;0.99;100.00
37368;BME280;23240;43.210;27.910;2023-01-28T04:21:47;100507.69;;;0.98;100.00
37368;BME280;23240;43.210;27.910;2023-01-28T04:24:14;100500.41;;;1.03;100.00
37368;BME280;23240;43.210;27.910;2023-01-28T04:26:39;100512.22;;;0.95;100.00
37368;BME280;23240;43.210;27.910;2023-01-28T04:29:05;100497.25;;;0.95;100.00
37368;BME280;23240;43.210;27.910;2023-01-28T04:31:31;100519.38;;;0.93;100.00
37368;BME280;23240;43.210;27.910;2023-01-28T04:33:58;100522.88;;;0.93;100.00
37368;BME280;23240;43.210;27.910;2023-01-28T04:36:23;100527.34;;;0.91;100.00
37368;BME280;23240;43.210;27.910;2023-01-28T04:38:49;100511.38;;;0.94;100.00
37368;BME280;23240;43.210;27.910;2023-01-28T04:41:15;100509.25;;;1.02;100.00
37368;BME280;23240;43.210;27.910;2023-01-28T04:43:40;100522.72;;;0.96;100.00
37368;BME280;23240;43.210;27.910;2023-01-28T04:46:06;100517.63;;;0.92;100.00
37368;BME280;23240;43.210;27.910;2023-01-28T04:48:31;100522.22;;;0.88;100.00
37368;BME280;23240;43.210;27.910;2023-01-28T04:50:59;100508.81;;;0.93;100.00
37368;BME280;23240;43.210;27.910;2023-01-28T04:53:25;100543.81;;;0.96;100.00
37368;BME280;23240;43.210;27.910;2023-01-28T04:55:50;100510.59;;;0.92;100.00
37368;BME280;23240;43.210;27.910;2023-01-28T04:58:16;100514.09;;;0.93;100.00
37368;BME280;23240;43.210;27.910;2023-01-28T05:00:42;100504.53;;;0.90;100.00
37368;BME280;23240;43.210;27.910;2023-01-28T05:03:07;100526.34;;;0.94;100.00
37368;BME280;23240;43.210;27.910;2023-01-28T05:05:33;100527.06;;;0.97;100.00
37368;BME280;23240;43.210;27.910;2023-01-28T05:07:58;100511.66;;;0.88;100.00
37368;BME280;23240;43.210;27.910;2023-01-28T05:10:25;100531.56;;;0.95;100.00
37368;BME280;23240;43.210;27.910;2023-01-28T05:12:51;100532.47;;;0.94;100.00
37368;BME280;23240;43.210;27.910;2023-01-28T05:15:18;100536.78;;;0.97;100.00
37368;BME280;23240;43.210;27.910;2023-01-28T05:17:44;100544.69;;;0.97;100.00
37368;BME280;23240;43.210;27.910;2023-01-28T05:20:13;100556.88;;;0.99;100.00
37368;BME280;23240;43.210;27.910;2023-01-28T05:22:40;100546.97;;;1.05;100.00
37368;BME280;23240;43.210;27.910;2023-01-28T05:25:06;100553.25;;;1.02;100.00
37368;BME280;23240;43.210;27.910;2023-01-28T05:27:32;100562.91;;;1.01;100.00
37368;BME280;23240;43.210;27.910;2023-01-28T05:29:58;100561.00;;;1.05;100.00
37368;BME280;23240;43.210;27.910;2023-01-28T05:32:25;100558.44;;;1.03;100.00
37368;BME280;23240;43.210;27.910;2023-01-28T05:34:50;100563.44;;;1.10;100.00
37368;BME280;23240;43.210;27.910;2023-01-28T05:37:16;100560.97;;;1.07;100.00
37368;BME280;23240;43.210;27.910;2023-01-28T05:39:41;100574.16;;;1.07;100.00
37368;BME280;23240;43.210;27.910;2023-01-28T05:42:07;100565.34;;;1.06;100.00
37368;BME280;23240;43.210;27.910;2023-01-28T05:44:33;100567.00;;;1.09;100.00
37368;BME280;23240;43.210;27.910;2023-01-28T05:46:58;100561.44;;;1.15;100.00
37368;BME280;23240;43.210;27.910;2023-01-28T05:49:24;100578.72;;;1.22;100.00
37368;BME280;23240;43.210;27.910;2023-01-28T05:51:51;100582.13;;;1.24;100.00
37368;BME280;23240;43.210;27.910;2023-01-28T05:54:16;100585.41;;;1.29;100.00
37368;BME280;23240;43.210;27.910;2023-01-28T05:56:42;100586.28;;;1.29;100.00
37368;BME280;23240;43.210;27.910;2023-01-28T05:59:09;100587.28;;;1.27;100.00
37368;BME280;23240;43.210;27.910;2023-01-28T06:01:35;100592.75;;;1.22;100.00
37368;BME280;23240;43.210;27.910;2023-01-28T06:04:00;100600.59;;;1.24;100.00
37368;BME280;23240;43.210;27.910;2023-01-28T06:06:26;100609.66;;;1.18;100.00
37368;BME280;23240;43.210;27.910;2023-01-28T06:08:51;100599.66;;;1.25;100.00
37368;BME280;23240;43.210;27.910;2023-01-28T06:11:17;100605.53;;;1.32;100.00
37368;BME280;23240;43.210;27.910;2023-01-28T06:13:42;100605.53;;;1.32;100.00
37368;BME280;23240;43.210;27.910;2023-01-28T06:16:09;100612.88;;;1.25;100.00
37368;BME280;23240;43.210;27.910;2023-01-28T06:18:34;100610.38;;;1.22;100.00
37368;BME280;23240;43.210;27.910;2023-01-28T06:21:00;100624.63;;;1.18;100.00
37368;BME280;23240;43.210;27.910;2023-01-28T06:23:25;100628.19;;;1.17;100.00
37368;BME280;23240;43.210;27.910;2023-01-28T06:25:55;100619.19;;;1.21;100.00
37368;BME280;23240;43.210;27.910;2023-01-28T06:28:20;100642.94;;;1.21;100.00
37368;BME280;23240;43.210;27.910;2023-01-28T06:30:50;100618.94;;;1.27;100.00
37368;BME280;23240;43.210;27.910;2023-01-28T06:33:17;100630.47;;;1.24;100.00
37368;BME280;23240;43.210;27.910;2023-01-28T06:35:43;100627.78;;;1.26;100.00
37368;BME280;23240;43.210;27.910;2023-01-28T06:38:09;100629.72;;;1.22;100.00
37368;BME280;23240;43.210;27.910;2023-01-28T06:40:35;100640.19;;;1.24;100.00
37368;BME280;23240;43.210;27.910;2023-01-28T06:43:01;100639.69;;;1.35;100.00
37368;BME280;23240;43.210;27.910;2023-01-28T06:45:26;100644.63;;;1.42;100.00
37368;BME280;23240;43.210;27.910;2023-01-28T06:47:52;100656.38;;;1.35;100.00
37368;BME280;23240;43.210;27.910;2023-01-28T06:50:17;100656.03;;;1.43;100.00
37368;BME280;23240;43.210;27.910;2023-01-28T06:52:43;100662.53;;;1.54;100.00
37368;BME280;23240;43.210;27.910;2023-01-28T06:55:09;100659.00;;;1.56;100.00
37368;BME280;23240;43.210;27.910;2023-01-28T06:57:37;100661.63;;;1.56;100.00
37368;BME280;23240;43.210;27.910;2023-01-28T07:00:05;100669.47;;;1.57;100.00
37368;BME280;23240;43.210;27.910;2023-01-28T07:02:31;100670.63;;;1.51;100.00
37368;BME280;23240;43.210;27.910;2023-01-28T07:04:56;100669.59;;;1.54;100.00
37368;BME280;23240;43.210;27.910;2023-01-28T07:07:22;100668.09;;;1.48;100.00
37368;BME280;23240;43.210;27.910;2023-01-28T07:09:47;100667.63;;;1.40;100.00
37368;BME280;23240;43.210;27.910;2023-01-28T07:12:13;100678.00;;;1.43;100.00
37368;BME280;23240;43.210;27.910;2023-01-28T07:14:38;100680.72;;;1.42;100.00
37368;BME280;23240;43.210;27.910;2023-01-28T07:17:04;100692.91;;;1.44;100.00
37368;BME280;23240;43.210;27.910;2023-01-28T07:19:29;100682.81;;;1.54;100.00
37368;BME280;23240;43.210;27.910;2023-01-28T07:21:55;100688.81;;;1.58;100.00
37368;BME280;23240;43.210;27.910;2023-01-28T07:24:23;100691.31;;;1.61;100.00
37368;BME280;23240;43.210;27.910;2023-01-28T07:26:48;100693.31;;;1.56;100.00
37368;BME280;23240;43.210;27.910;2023-01-28T07:29:14;100695.88;;;1.57;100.00
37368;BME280;23240;43.210;27.910;2023-01-28T07:31:39;100692.59;;;1.52;100.00
37368;BME280;23240;43.210;27.910;2023-01-28T07:34:05;100687.97;;;1.57;100.00
37368;BME280;23240;43.210;27.910;2023-01-28T07:36:30;100684.78;;;1.69;100.00
37368;BME280;23240;43.210;27.910;2023-01-28T07:38:56;100686.97;;;1.78;100.00
37368;BME280;23240;43.210;27.910;2023-01-28T07:41:21;100693.47;;;1.71;100.00
37368;BME280;23240;43.210;27.910;2023-01-28T07:43:47;100693.78;;;1.84;100.00
37368;BME280;23240;43.210;27.910;2023-01-28T07:46:12;100686.84;;;2.00;100.00
37368;BME280;23240;43.210;27.910;2023-01-28T07:48:37;100686.50;;;2.08;100.00
37368;BME280;23240;43.210;27.910;2023-01-28T07:51:03;100686.31;;;1.92;100.00
37368;BME280;23240;43.210;27.910;2023-01-28T07:53:29;100698.34;;;1.99;100.00
37368;BME280;23240;43.210;27.910;2023-01-28T07:56:00;100700.13;;;1.80;100.00
37368;BME280;23240;43.210;27.910;2023-01-28T07:58:27;100699.97;;;1.83;100.00
37368;BME280;23240;43.210;27.910;2023-01-28T08:00:58;100702.69;;;2.00;100.00
37368;BME280;23240;43.210;27.910;2023-01-28T08:03:24;100698.38;;;2.17;100.00
37368;BME280;23240;43.210;27.910;2023-01-28T08:05:51;100698.13;;;2.23;100.00
37368;BME280;23240;43.210;27.910;2023-01-28T08:08:17;100703.28;;;2.43;100.00
37368;BME280;23240;43.210;27.910;2023-01-28T08:10:44;100694.94;;;2.34;100.00
37368;BME280;23240;43.210;27.910;2023-01-28T08:13:10;100708.88;;;2.37;100.00
37368;BME280;23240;43.210;27.910;2023-01-28T08:15:36;100713.41;;;2.52;100.00
37368;BME280;23240;43.210;27.910;2023-01-28T08:18:04;100725.75;;;2.71;100.00
37368;BME280;23240;43.210;27.910;2023-01-28T08:20:30;100728.69;;;2.99;100.00
37368;BME280;23240;43.210;27.910;2023-01-28T08:23:13;100738.97;;;2.71;100.00
37368;BME280;23240;43.210;27.910;2023-01-28T08:25:39;100742.69;;;2.84;100.00
37368;BME280;23240;43.210;27.910;2023-01-28T08:28:05;100744.75;;;2.96;100.00
37368;BME280;23240;43.210;27.910;2023-01-28T08:30:32;100739.28;;;2.82;100.00
37368;BME280;23240;43.210;27.910;2023-01-28T08:32:58;100747.03;;;2.68;100.00
37368;BME280;23240;43.210;27.910;2023-01-28T08:35:25;100758.00;;;2.41;100.00
37368;BME280;23240;43.210;27.910;2023-01-28T08:37:51;100760.88;;;1.99;100.00
37368;BME280;23240;43.210;27.910;2023-01-28T08:40:17;100761.81;;;2.17;100.00
37368;BME280;23240;43.210;27.910;2023-01-28T08:42:49;100758.72;;;2.07;100.00
37368;BME280;23240;43.210;27.910;2023-01-28T08:45:16;100757.88;;;2.06;100.00
37368;BME280;23240;43.210;27.910;2023-01-28T08:47:55;100751.94;;;2.01;100.00
37368;BME280;23240;43.210;27.910;2023-01-28T08:50:22;100752.38;;;1.92;100.00
37368;BME280;23240;43.210;27.910;2023-01-28T08:52:57;100769.13;;;1.72;100.00
37368;BME280;23240;43.210;27.910;2023-01-28T08:55:23;100755.16;;;1.89;100.00
37368;BME280;23240;43.210;27.910;2023-01-28T08:57:49;100767.44;;;1.90;100.00
37368;BME280;23240;43.210;27.910;2023-01-28T09:00:15;100769.72;;;1.79;100.00
37368;BME280;23240;43.210;27.910;2023-01-28T09:02:40;100756.00;;;1.71;100.00
37368;BME280;23240;43.210;27.910;2023-01-28T09:05:06;100760.22;;;1.75;100.00
37368;BME280;23240;43.210;27.910;2023-01-28T09:07:36;100744.16;;;1.79;100.00
37368;BME280;23240;43.210;27.910;2023-01-28T09:10:02;100748.00;;;1.72;100.00
37368;BME280;23240;43.210;27.910;2023-01-28T09:12:28;100757.28;;;1.81;100.00
37368;BME280;23240;43.210;27.910;2023-01-28T09:14:54;100753.72;;;1.82;100.00
37368;BME280;23240;43.210;27.910;2023-01-28T09:17:20;100750.25;;;1.61;100.00
37368;BME280;23240;43.210;27.910;2023-01-28T09:19:45;100775.06;;;1.57;100.00
37368;BME280;23240;43.210;27.910;2023-01-28T09:22:11;100760.38;;;1.91;100.00
37368;BME280;23240;43.210;27.910;2023-01-28T09:24:36;100754.41;;;1.67;100.00
37368;BME280;23240;43.210;27.910;2023-01-28T09:27:02;100759.63;;;1.48;100.00
37368;BME280;23240;43.210;27.910;2023-01-28T09:29:28;100776.72;;;1.39;100.00
37368;BME280;23240;43.210;27.910;2023-01-28T09:31:53;100780.75;;;1.48;100.00
37368;BME280;23240;43.210;27.910;2023-01-28T09:34:19;100792.06;;;1.51;100.00
37368;BME280;23240;43.210;27.910;2023-01-28T09:36:45;100781.00;;;1.62;100.00
37368;BME280;23240;43.210;27.910;2023-01-28T09:39:10;100792.34;;;1.64;100.00
37368;BME280;23240;43.210;27.910;2023-01-28T09:41:44;100793.53;;;1.77;100.00
37368;BME280;23240;43.210;27.910;2023-01-28T09:44:45;100774.75;;;1.84;100.00
37368;BME280;23240;43.210;27.910;2023-01-28T09:47:25;100780.28;;;1.79;100.00
37368;BME280;23240;43.210;27.910;2023-01-28T09:49:53;100779.00;;;1.88;100.00
37368;BME280;23240;43.210;27.910;2023-01-28T09:52:22;100777.56;;;1.80;100.00
37368;BME280;23240;43.210;27.910;2023-01-28T09:57:58;100772.66;;;1.92;100.00
37368;BME280;23240;43.210;27.910;2023-01-28T10:12:20;100731.94;;;1.77;100.00
37368;BME280;23240;43.210;27.910;2023-01-28T10:16:51;100746.66;;;1.83;100.00
37368;BME280;23240;43.210;27.910;2023-01-28T10:19:23;100749.00;;;2.08;100.00
37368;BME280;23240;43.210;27.910;2023-01-28T10:22:08;100754.25;;;2.28;100.00
37368;BME280;23240;43.210;27.910;2023-01-28T10:24:52;100747.00;;;2.13;100.00
37368;BME280;23240;43.210;27.910;2023-01-28T10:27:22;100737.44;;;1.91;100.00
37368;BME280;23240;43.210;27.910;2023-01-28T10:29:49;100741.97;;;1.89;100.00
37368;BME280;23240;43.210;27.910;2023-01-28T10:34:51;100753.00;;;1.97;100.00
37368;BME280;23240;43.210;27.910;2023-01-28T10:37:18;100761.75;;;1.99;100.00
37368;BME280;23240;43.210;27.910;2023-01-28T10:39:44;100771.44;;;1.80;100.00
37368;BME280;23240;43.210;27.910;2023-01-28T10:44:52;100769.13;;;1.72;100.00
37368;BME280;23240;43.210;27.910;2023-01-28T10:47:29;100750.31;;;1.80;100.00
37368;BME280;23240;43.210;27.910;2023-01-28T10:49:58;100766.50;;;1.91;100.00
37368;BME280;23240;43.210;27.910;2023-01-28T10:52:25;100771.16;;;1.86;100.00
37368;BME280;23240;43.210;27.910;2023-01-28T10:55:04;100756.03;;;1.90;100.00
37368;BME280;23240;43.210;27.910;2023-01-28T10:57:32;100777.28;;;1.87;100.00
37368;BME280;23240;43.210;27.910;2023-01-28T11:00:10;100774.56;;;1.88;100.00
37368;BME280;23240;43.210;27.910;2023-01-28T11:02:36;100771.28;;;2.02;100.00
37368;BME280;23240;43.210;27.910;2023-01-28T11:07:27;100783.38;;;1.89;100.00
37368;BME280;23240;43.210;27.910;2023-01-28T11:09:52;100788.66;;;1.89;100.00
37368;BME280;23240;43.210;27.910;2023-01-28T11:12:25;100788.41;;;1.93;100.00
37368;BME280;23240;43.210;27.910;2023-01-28T11:14:56;100781.59;;;1.89;100.00
37368;BME280;23240;43.210;27.910;2023-01-28T11:17:28;100776.75;;;1.99;100.00
37368;BME280;23240;43.210;27.910;2023-01-28T11:19:57;100790.00;;;1.97;100.00
37368;BME280;23240;43.210;27.910;2023-01-28T11:24:52;100797.09;;;1.76;100.00
37368;BME280;23240;43.210;27.910;2023-01-28T11:27:26;100799.13;;;1.90;100.00
37368;BME280;23240;43.210;27.910;2023-01-28T11:29:56;100797.69;;;1.83;100.00
37368;BME280;23240;43.210;27.910;2023-01-28T11:32:24;100787.41;;;1.77;100.00
37368;BME280;23240;43.210;27.910;2023-01-28T11:34:54;100788.06;;;1.82;100.00
37368;BME280;23240;43.210;27.910;2023-01-28T11:37:26;100787.97;;;1.65;100.00
37368;BME280;23240;43.210;27.910;2023-01-28T11:40:13;100786.50;;;1.58;100.00
37368;BME280;23240;43.210;27.910;2023-01-28T11:42:41;100798.66;;;1.62;100.00
37368;BME280;23240;43.210;27.910;2023-01-28T11:45:14;100791.25;;;1.49;100.00
37368;BME280;23240;43.210;27.910;2023-01-28T11:47:53;100794.00;;;1.67;100.00
37368;BME280;23240;43.210;27.910;2023-01-28T12:00:43;100798.31;;;1.49;100.00
37368;BME280;23240;43.210;27.910;2023-01-28T12:03:33;100803.13;;;1.39;100.00
37368;BME280;23240;43.210;27.910;2023-01-28T12:20:42;100826.91;;;1.60;100.00
37368;BME280;23240;43.210;27.910;2023-01-28T12:25:53;100822.53;;;1.38;100.00
37368;BME280;23240;43.210;27.910;2023-01-28T12:34:06;100834.41;;;1.48;100.00
37368;BME280;23240;43.210;27.910;2023-01-28T12:44:33;100834.22;;;1.53;100.00
37368;BME280;23240;43.210;27.910;2023-01-28T12:47:12;100841.28;;;1.52;100.00
37368;BME280;23240;43.210;27.910;2023-01-28T12:49:52;100843.25;;;1.68;100.00
37368;BME280;23240;43.210;27.910;2023-01-28T12:52:24;100862.47;;;1.71;100.00
37368;BME280;23240;43.210;27.910;2023-01-28T12:57:30;100858.81;;;1.53;100.00
37368;BME280;23240;43.210;27.910;2023-01-28T13:02:36;100863.06;;;1.78;100.00
37368;BME280;23240;43.210;27.910;2023-01-28T13:05:20;100876.03;;;1.84;100.00
37368;BME280;23240;43.210;27.910;2023-01-28T13:08:01;100882.28;;;1.82;100.00
37368;BME280;23240;43.210;27.910;2023-01-28T13:10:42;100878.91;;;1.78;100.00
37368;BME280;23240;43.210;27.910;2023-01-28T13:13:24;100889.63;;;1.75;100.00
37368;BME280;23240;43.210;27.910;2023-01-28T13:15:52;100884.28;;;1.54;100.00
37368;BME280;23240;43.210;27.910;2023-01-28T13:21:15;100901.81;;;1.35;100.00
37368;BME280;23240;43.210;27.910;2023-01-28T13:23:46;100897.47;;;1.34;100.00
37368;BME280;23240;43.210;27.910;2023-01-28T13:28:44;100914.16;;;1.35;100.00
37368;BME280;23240;43.210;27.910;2023-01-28T13:31:13;100907.09;;;1.35;100.00
37368;BME280;23240;43.210;27.910;2023-01-28T13:34:04;100921.97;;;1.38;100.00
37368;BME280;23240;43.210;27.910;2023-01-28T13:36:44;100936.31;;;1.52;100.00
37368;BME280;23240;43.210;27.910;2023-01-28T13:42:10;100929.44;;;1.48;100.00
37368;BME280;23240;43.210;27.910;2023-01-28T13:44:44;100939.13;;;1.48;100.00
37368;BME280;23240;43.210;27.910;2023-01-28T13:49:41;100928.81;;;1.64;100.00
37368;BME280;23240;43.210;27.910;2023-01-28T13:54:38;100932.78;;;1.74;100.00
37368;BME280;23240;43.210;27.910;2023-01-28T14:11:01;100937.44;;;1.25;100.00
37368;BME280;23240;43.210;27.910;2023-01-28T14:14:04;100935.47;;;1.30;100.00
37368;BME280;23240;43.210;27.910;2023-01-28T14:16:57;100944.03;;;1.35;100.00
37368;BME280;23240;43.210;27.910;2023-01-28T14:19:32;100950.44;;;1.29;100.00
37368;BME280;23240;43.210;27.910;2023-01-28T14:21:58;100946.47;;;1.41;100.00
37368;BME280;23240;43.210;27.910;2023-01-28T14:24:24;100949.09;;;1.41;100.00
37368;BME280;23240;43.210;27.910;2023-01-28T14:32:11;100967.44;;;1.22;100.00
37368;BME280;23240;43.210;27.910;2023-01-28T14:34:40;100971.91;;;1.20;100.00
37368;BME280;23240;43.210;27.910;2023-01-28T14:37:10;100973.69;;;1.20;100.00
37368;BME280;23240;43.210;27.910;2023-01-28T14:42:29;100978.78;;;1.24;100.00
37368;BME280;23240;43.210;27.910;2023-01-28T14:55:31;100992.06;;;1.23;100.00
37368;BME280;23240;43.210;27.910;2023-01-28T14:58:04;100994.88;;;1.18;100.00
37368;BME280;23240;43.210;27.910;2023-01-28T15:00:32;100997.31;;;1.23;100.00
37368;BME280;23240;43.210;27.910;2023-01-28T15:02:58;101006.72;;;1.30;100.00
37368;BME280;23240;43.210;27.910;2023-01-28T15:05:26;100999.84;;;1.26;100.00
37368;BME280;23240;43.210;27.910;2023-01-28T15:07:52;101006.88;;;1.25;100.00
37368;BME280;23240;43.210;27.910;2023-01-28T15:15:31;100997.72;;;1.36;100.00
37368;BME280;23240;43.210;27.910;2023-01-28T15:18:51;101017.50;;;1.24;100.00
37368;BME280;23240;43.210;27.910;2023-01-28T15:20:53;101008.91;;;1.19;100.00